Time;durP1;ratioP1;P1;durP2;ratioP2;P2;SDS_P1;SDS_P2;PMS_P1;PMS_P2;Temp;Humidity;BMP_temperature;BMP_pressure;BME280_temperature;BME280_humidity;BME280_pressure;Samples;Min_cycle;Max_cycle;Signal;HPM_P1;HPM_P2
2022/05/16 00:01:03;;;;;;;;;;;15.20;99.90;;;;;;5008468;28;20341;-70
2022/05/16 00:03:29;;;;;;;;;;;15.20;99.90;;;;;;5015734;28;20290;-69
2022/05/16 00:05:54;;;;;;;;;;;15.50;99.90;;;;;;5007842;28;19913;-70
2022/05/16 00:08:20;;;;;;;;;;;15.40;99.90;;;;;;5013086;28;20386;-70
2022/05/16 00:10:45;;;;;;;;;;;15.50;99.90;;;;;;5009864;28;19932;-71
2022/05/16 00:13:11;;;;;;;;;;;15.50;99.90;;;;;;5013370;28;19910;-69
2022/05/16 00:15:36;;;;;;;;;;;15.50;99.90;;;;;;5009687;28;19913;-69
2022/05/16 00:18:02;;;;;;;;;;;15.50;99.90;;;;;;5009663;28;19909;-70
2022/05/16 00:20:28;;;;;;;;;;;15.50;99.90;;;;;;5008858;28;20403;-69
2022/05/16 00:22:53;;;;;;;;;;;15.60;99.90;;;;;;5013472;28;20308;-69
2022/05/16 00:25:20;;;;;;;;;;;15.50;99.90;;;;;;5013549;28;19996;-70
2022/05/16 00:27:45;;;;;;;;;;;15.50;99.90;;;;;;5015753;28;20378;-70
2022/05/16 00:30:13;;;;;;;;;;;15.50;99.90;;;;;;5013760;28;19921;-71
2022/05/16 00:32:39;;;;;;;;;;;15.60;99.90;;;;;;5010201;28;20330;-70
2022/05/16 00:35:05;;;;;;;;;;;15.50;99.90;;;;;;5010047;28;19927;-69
2022/05/16 00:37:30;;;;;;;;;;;15.40;99.90;;;;;;5014516;28;19909;-69
2022/05/16 00:39:56;;;;;;;;;;;15.50;99.90;;;;;;5018515;28;19909;-71
2022/05/16 00:42:22;;;;;;;;;;;15.60;99.90;;;;;;5015233;28;19910;-69
2022/05/16 00:44:48;;;;;;;;;;;15.60;99.90;;;;;;5005656;28;19918;-69
2022/05/16 00:47:14;;;;;;;;;;;15.60;99.90;;;;;;5024653;28;20386;-69
2022/05/16 00:49:42;;;;;;;;;;;15.60;99.90;;;;;;5011338;28;19916;-70
2022/05/16 00:52:16;;;;;;;;;;;15.70;99.90;;;;;;5007578;28;19917;-70
2022/05/16 00:54:44;;;;;;;;;;;15.70;99.90;;;;;;4996153;28;19909;-70
2022/05/16 00:57:13;;;;;;;;;;;15.80;99.90;;;;;;5012470;28;19913;-70
2022/05/16 00:59:39;;;;;;;;;;;15.90;99.90;;;;;;5016746;28;19909;-70
2022/05/16 01:04:49;;;;;;;;;;;16.00;99.90;;;;;;5017378;28;19956;-70
2022/05/16 01:07:20;;;;;;;;;;;15.80;99.90;;;;;;4997092;28;19925;-70
2022/05/16 01:09:46;;;;;;;;;;;15.80;99.90;;;;;;5016697;28;19918;-71
2022/05/16 01:12:12;;;;;;;;;;;15.70;99.90;;;;;;5014439;28;19925;-70
2022/05/16 01:14:38;;;;;;;;;;;15.70;99.90;;;;;;5017243;28;19909;-70
2022/05/16 01:17:04;;;;;;;;;;;15.70;99.90;;;;;;5016663;28;19909;-70
2022/05/16 01:19:30;;;;;;;;;;;15.70;99.90;;;;;;5009825;28;19971;-70
2022/05/16 01:21:58;;;;;;;;;;;15.80;99.90;;;;;;5018094;28;19909;-69
2022/05/16 01:24:25;;;;;;;;;;;15.90;99.90;;;;;;5015712;28;19913;-70
2022/05/16 01:26:52;;;;;;;;;;;16.00;99.90;;;;;;5018767;28;19963;-70
2022/05/16 01:29:19;;;;;;;;;;;16.00;99.90;;;;;;5014266;28;19963;-69
2022/05/16 01:31:45;;;;;;;;;;;16.00;99.90;;;;;;5010221;28;19924;-70
2022/05/16 01:34:11;;;;;;;;;;;16.10;99.90;;;;;;5009830;28;19909;-70
2022/05/16 01:36:37;;;;;;;;;;;16.20;99.90;;;;;;5010596;28;19909;-70
2022/05/16 01:39:03;;;;;;;;;;;16.10;99.90;;;;;;5009702;28;19921;-70
2022/05/16 01:41:28;;;;;;;;;;;15.90;99.90;;;;;;5011820;28;19917;-69
2022/05/16 01:43:55;;;;;;;;;;;15.90;99.90;;;;;;5008087;28;19933;-70
2022/05/16 01:46:25;;;;;;;;;;;15.90;99.90;;;;;;5009501;28;19909;-69
2022/05/16 01:48:52;;;;;;;;;;;15.90;99.90;;;;;;5010422;28;19968;-70
2022/05/16 01:51:18;;;;;;;;;;;15.80;99.90;;;;;;5010098;28;19917;-69
2022/05/16 01:53:44;;;;;;;;;;;15.90;99.90;;;;;;5010442;28;19997;-69
2022/05/16 01:56:10;;;;;;;;;;;15.90;99.90;;;;;;5010985;28;19917;-71
2022/05/16 01:58:36;;;;;;;;;;;15.90;99.90;;;;;;5009628;28;19909;-69
2022/05/16 02:01:02;;;;;;;;;;;15.90;99.90;;;;;;5008987;28;19996;-70
2022/05/16 02:03:28;;;;;;;;;;;15.80;99.90;;;;;;5012305;28;19955;-70
2022/05/16 02:05:54;;;;;;;;;;;15.80;99.90;;;;;;4991536;28;20156;-69
2022/05/16 02:08:20;;;;;;;;;;;15.80;99.90;;;;;;4974546;28;19913;-69
2022/05/16 02:10:46;;;;;;;;;;;15.90;99.90;;;;;;5011121;28;20323;-70
2022/05/16 02:13:11;;;;;;;;;;;15.90;99.90;;;;;;5011084;28;19909;-70
2022/05/16 02:15:38;;;;;;;;;;;15.90;99.90;;;;;;5010377;28;19909;-70
2022/05/16 02:18:04;;;;;;;;;;;16.00;99.90;;;;;;5011540;28;19963;-71
2022/05/16 02:20:29;;;;;;;;;;;16.00;99.90;;;;;;5010853;28;20220;-70
2022/05/16 02:25:46;;;;;;;;;;;16.10;99.90;;;;;;5008621;28;20386;-69
2022/05/16 02:28:14;;;;;;;;;;;16.10;99.90;;;;;;5014747;28;19972;-69
2022/05/16 02:30:41;;;;;;;;;;;16.10;99.90;;;;;;5011880;28;20443;-69
2022/05/16 02:33:07;;;;;;;;;;;15.90;99.90;;;;;;5008415;28;20552;-71
2022/05/16 02:35:33;;;;;;;;;;;15.90;99.90;;;;;;5010836;28;20404;-70
2022/05/16 02:37:59;;;;;;;;;;;16.00;99.90;;;;;;4993743;28;19910;-71
2022/05/16 02:40:25;;;;;;;;;;;15.90;99.90;;;;;;4992210;28;19917;-71
2022/05/16 02:42:51;;;;;;;;;;;15.90;99.90;;;;;;5011522;28;19956;-69
2022/05/16 02:45:17;;;;;;;;;;;16.00;99.90;;;;;;5010359;28;19909;-71
2022/05/16 02:47:42;;;;;;;;;;;15.90;99.90;;;;;;5007167;28;20296;-70
2022/05/16 02:50:08;;;;;;;;;;;15.80;99.90;;;;;;5008542;28;19979;-70
2022/05/16 02:52:34;;;;;;;;;;;15.80;99.90;;;;;;5009933;28;19995;-70
2022/05/16 02:55:02;;;;;;;;;;;15.70;99.90;;;;;;5010891;28;19913;-72
2022/05/16 02:57:29;;;;;;;;;;;15.60;99.90;;;;;;5010539;28;19909;-70
2022/05/16 02:59:54;;;;;;;;;;;15.60;99.90;;;;;;5009810;28;19955;-70
2022/05/16 03:02:20;;;;;;;;;;;15.70;99.90;;;;;;5011587;28;19909;-72
2022/05/16 03:04:46;;;;;;;;;;;15.80;99.90;;;;;;5012358;28;20003;-70
2022/05/16 03:07:11;;;;;;;;;;;15.80;99.90;;;;;;5006786;28;19917;-71
2022/05/16 03:09:38;;;;;;;;;;;15.90;99.90;;;;;;5011438;28;19909;-70
2022/05/16 03:12:03;;;;;;;;;;;15.80;99.90;;;;;;5008843;28;19920;-71
2022/05/16 03:14:29;;;;;;;;;;;15.80;99.90;;;;;;5006463;28;19913;-71
2022/05/16 03:16:55;;;;;;;;;;;15.80;99.90;;;;;;5009813;28;19959;-70
2022/05/16 03:19:20;;;;;;;;;;;15.70;99.90;;;;;;5009647;28;19962;-70
2022/05/16 03:21:46;;;;;;;;;;;15.70;99.90;;;;;;5005187;28;19948;-70
2022/05/16 03:24:12;;;;;;;;;;;15.60;99.90;;;;;;5008809;28;20130;-71
2022/05/16 03:26:38;;;;;;;;;;;15.70;99.90;;;;;;5008988;28;19909;-70
2022/05/16 03:29:06;;;;;;;;;;;15.80;99.90;;;;;;4993140;28;19913;-71
2022/05/16 03:31:32;;;;;;;;;;;15.80;99.90;;;;;;5012676;28;19957;-70
2022/05/16 03:33:57;;;;;;;;;;;16.00;99.90;;;;;;5010443;28;20417;-72
2022/05/16 03:36:23;;;;;;;;;;;15.90;99.90;;;;;;5015515;28;20386;-71
2022/05/16 03:41:33;;;;;;;;;;;15.90;99.90;;;;;;5010674;28;19963;-71
2022/05/16 03:43:58;;;;;;;;;;;16.00;99.90;;;;;;5011722;28;19910;-70
2022/05/16 03:46:24;;;;;;;;;;;16.10;99.90;;;;;;5010217;28;19995;-70
2022/05/16 03:48:50;;;;;;;;;;;16.20;99.90;;;;;;5009769;28;20007;-71
2022/05/16 03:51:15;;;;;;;;;;;16.20;99.90;;;;;;5007908;28;20216;-72
2022/05/16 03:53:47;;;;;;;;;;;16.20;99.90;;;;;;5005130;28;19916;-71
2022/05/16 03:56:13;;;;;;;;;;;16.20;99.90;;;;;;5007818;28;19909;-71
2022/05/16 03:58:39;;;;;;;;;;;16.20;99.90;;;;;;5008986;28;19947;-70
2022/05/16 04:01:05;;;;;;;;;;;16.30;99.90;;;;;;5006439;28;19909;-69
2022/05/16 04:03:30;;;;;;;;;;;16.30;99.90;;;;;;5009901;28;19909;-71
2022/05/16 04:05:56;;;;;;;;;;;16.40;99.90;;;;;;5007566;28;19913;-70
2022/05/16 04:08:21;;;;;;;;;;;16.20;99.90;;;;;;5005429;28;19917;-71
2022/05/16 04:10:47;;;;;;;;;;;16.30;99.90;;;;;;5005763;28;20004;-70
2022/05/16 04:13:12;;;;;;;;;;;16.30;99.90;;;;;;5008447;28;20003;-70
2022/05/16 04:15:38;;;;;;;;;;;16.30;99.90;;;;;;5008467;28;19909;-70
2022/05/16 04:18:04;;;;;;;;;;;16.30;99.90;;;;;;5011026;28;20362;-70
2022/05/16 04:20:30;;;;;;;;;;;16.20;99.90;;;;;;5008311;28;19909;-70
2022/05/16 04:22:55;;;;;;;;;;;16.20;99.90;;;;;;5003696;28;19997;-71
2022/05/16 04:25:21;;;;;;;;;;;16.20;99.90;;;;;;5009991;28;19909;-70
2022/05/16 04:27:47;;;;;;;;;;;16.20;99.90;;;;;;5004088;28;19917;-71
2022/05/16 04:30:12;;;;;;;;;;;16.10;99.90;;;;;;5013074;28;19967;-71
2022/05/16 04:32:38;;;;;;;;;;;16.10;99.90;;;;;;5011597;28;20299;-71
2022/05/16 04:35:04;;;;;;;;;;;16.00;99.90;;;;;;5009910;28;19909;-71
2022/05/16 04:37:32;;;;;;;;;;;15.90;99.90;;;;;;5013718;28;19916;-71
2022/05/16 04:39:58;;;;;;;;;;;15.80;99.90;;;;;;5009540;28;19920;-71
2022/05/16 04:42:43;;;;;;;;;;;15.70;99.90;;;;;;5012184;28;19941;-70
2022/05/16 04:45:16;;;;;;;;;;;15.70;99.90;;;;;;5012513;28;19915;-70
2022/05/16 04:47:43;;;;;;;;;;;15.70;99.90;;;;;;5015565;28;20000;-71
2022/05/16 04:50:09;;;;;;;;;;;15.70;99.90;;;;;;5009103;28;19910;-71
2022/05/16 04:52:35;;;;;;;;;;;15.70;99.90;;;;;;5001586;28;20019;-71
2022/05/16 04:55:01;;;;;;;;;;;15.70;99.90;;;;;;5013677;28;19909;-71
2022/05/16 04:57:26;;;;;;;;;;;15.60;99.90;;;;;;5009751;28;19910;-72
2022/05/16 04:59:52;;;;;;;;;;;15.70;99.90;;;;;;4993142;28;20108;-71
2022/05/16 05:02:18;;;;;;;;;;;15.70;99.90;;;;;;5012592;28;19956;-70
2022/05/16 05:04:44;;;;;;;;;;;15.70;99.90;;;;;;5010036;28;19910;-71
2022/05/16 05:07:10;;;;;;;;;;;15.70;99.90;;;;;;5011461;28;19914;-71
2022/05/16 05:15:05;;;;;;;;;;;15.80;99.90;;;;;;5012510;28;20413;-71
2022/05/16 05:17:30;;;;;;;;;;;15.90;99.90;;;;;;5011627;28;19910;-71
2022/05/16 05:19:56;;;;;;;;;;;16.00;99.90;;;;;;5011967;28;20363;-71
2022/05/16 05:22:21;;;;;;;;;;;16.20;99.90;;;;;;5006687;28;19971;-71
2022/05/16 05:24:47;;;;;;;;;;;16.30;99.90;;;;;;5010494;28;19967;-71
2022/05/16 05:27:12;;;;;;;;;;;16.40;99.90;;;;;;5009315;28;20390;-71
2022/05/16 05:29:38;;;;;;;;;;;16.50;99.90;;;;;;5010580;28;19921;-71
2022/05/16 05:32:06;;;;;;;;;;;16.60;99.90;;;;;;5010849;28;19965;-71
2022/05/16 05:34:34;;;;;;;;;;;16.60;99.90;;;;;;5006622;28;19917;-70
2022/05/16 05:37:00;;;;;;;;;;;16.60;99.90;;;;;;5010760;28;19909;-71
2022/05/16 05:39:26;;;;;;;;;;;16.50;99.90;;;;;;5011375;28;19915;-70
2022/05/16 05:41:52;;;;;;;;;;;16.40;99.90;;;;;;5011722;28;19913;-71
2022/05/16 05:44:17;;;;;;;;;;;16.40;99.90;;;;;;5011363;28;20379;-71
2022/05/16 05:46:43;;;;;;;;;;;16.30;99.90;;;;;;5009747;28;20034;-71
2022/05/16 05:49:09;;;;;;;;;;;16.30;99.90;;;;;;5012340;28;19910;-71
2022/05/16 05:51:35;;;;;;;;;;;16.30;99.90;;;;;;5011804;28;20375;-71
2022/05/16 05:54:01;;;;;;;;;;;16.20;99.90;;;;;;5008850;28;19910;-71
2022/05/16 05:56:28;;;;;;;;;;;16.20;99.90;;;;;;5009820;28;19912;-70
2022/05/16 05:58:54;;;;;;;;;;;16.30;99.90;;;;;;5011962;28;19955;-72
2022/05/16 06:01:19;;;;;;;;;;;16.20;99.90;;;;;;4992489;28;19948;-72
2022/05/16 06:03:45;;;;;;;;;;;16.20;99.90;;;;;;5008813;28;20295;-71
2022/05/16 06:06:10;;;;;;;;;;;16.20;99.90;;;;;;5009835;28;19921;-69
2022/05/16 06:08:36;;;;;;;;;;;16.10;99.90;;;;;;5012349;28;19909;-71
2022/05/16 06:11:01;;;;;;;;;;;16.00;99.90;;;;;;5010213;28;19917;-71
2022/05/16 06:13:28;;;;;;;;;;;16.10;99.90;;;;;;4991938;28;19909;-69
2022/05/16 06:15:54;;;;;;;;;;;16.00;99.90;;;;;;5010355;28;20010;-71
2022/05/16 06:18:19;;;;;;;;;;;15.90;99.90;;;;;;5010132;28;19956;-71
2022/05/16 06:20:45;;;;;;;;;;;15.90;99.90;;;;;;5006241;28;19920;-70
2022/05/16 06:23:11;;;;;;;;;;;16.00;99.90;;;;;;4992814;28;20002;-70
2022/05/16 06:25:42;;;;;;;;;;;16.10;99.90;;;;;;5005798;28;19956;-70
2022/05/16 06:28:12;;;;;;;;;;;16.10;99.90;;;;;;5012137;28;20371;-70
2022/05/16 06:30:39;;;;;;;;;;;16.10;99.90;;;;;;5005845;28;19925;-70
2022/05/16 06:33:05;;;;;;;;;;;16.10;99.90;;;;;;5009026;28;19960;-71
2022/05/16 06:35:31;;;;;;;;;;;16.20;99.90;;;;;;5014660;28;20011;-71
2022/05/16 06:38:03;;;;;;;;;;;16.30;99.90;;;;;;5014324;28;19917;-70
2022/05/16 06:40:28;;;;;;;;;;;16.40;99.90;;;;;;5009297;28;19970;-70
2022/05/16 06:42:54;;;;;;;;;;;16.50;99.90;;;;;;5011141;28;20000;-69
2022/05/16 06:45:19;;;;;;;;;;;16.60;99.90;;;;;;5010956;28;19910;-70
2022/05/16 06:47:45;;;;;;;;;;;16.70;99.90;;;;;;5010368;28;20000;-71
2022/05/16 06:50:11;;;;;;;;;;;16.90;99.90;;;;;;5013631;28;20278;-71
2022/05/16 06:52:37;;;;;;;;;;;16.90;99.90;;;;;;5009643;28;19913;-70
2022/05/16 06:55:03;;;;;;;;;;;17.00;99.90;;;;;;5009481;28;19925;-70
2022/05/16 06:57:28;;;;;;;;;;;17.20;99.90;;;;;;5009673;28;20003;-71
2022/05/16 06:59:54;;;;;;;;;;;17.40;99.90;;;;;;5003020;28;19913;-69
2022/05/16 07:02:19;;;;;;;;;;;17.50;99.90;;;;;;4990459;28;19919;-71
2022/05/16 07:04:45;;;;;;;;;;;17.60;99.90;;;;;;5008981;28;20287;-71
2022/05/16 07:07:12;;;;;;;;;;;17.40;99.90;;;;;;5008935;28;20359;-71
2022/05/16 07:09:41;;;;;;;;;;;17.50;99.90;;;;;;4998481;28;19916;-69
2022/05/16 07:12:07;;;;;;;;;;;17.60;99.90;;;;;;5007850;28;19913;-70
2022/05/16 07:14:34;;;;;;;;;;;17.70;99.90;;;;;;5002348;28;19921;-69
2022/05/16 07:17:00;;;;;;;;;;;17.50;99.90;;;;;;5012894;28;20003;-72
2022/05/16 07:19:29;;;;;;;;;;;17.40;99.90;;;;;;5010617;28;19920;-70
2022/05/16 07:21:55;;;;;;;;;;;17.50;99.90;;;;;;5009235;28;19981;-69
2022/05/16 07:24:21;;;;;;;;;;;17.40;99.90;;;;;;5007387;28;20345;-70
2022/05/16 07:29:30;;;;;;;;;;;17.40;99.90;;;;;;5010959;28;19920;-68
2022/05/16 07:31:57;;;;;;;;;;;17.40;99.90;;;;;;4993616;28;19921;-69
2022/05/16 07:34:22;;;;;;;;;;;17.40;99.90;;;;;;5005927;28;19916;-68
2022/05/16 07:36:48;;;;;;;;;;;17.40;99.90;;;;;;5006751;28;19909;-69
2022/05/16 07:39:13;;;;;;;;;;;17.40;99.90;;;;;;4987919;28;20251;-71
2022/05/16 07:41:39;;;;;;;;;;;17.60;99.90;;;;;;5006402;28;19910;-69
2022/05/16 07:44:05;;;;;;;;;;;17.70;99.90;;;;;;4992079;28;19909;-70
2022/05/16 07:46:30;;;;;;;;;;;17.80;99.90;;;;;;5010295;28;19967;-71
2022/05/16 07:48:56;;;;;;;;;;;17.80;99.90;;;;;;5006372;28;19913;-70
2022/05/16 07:51:21;;;;;;;;;;;17.90;99.90;;;;;;5000125;28;19925;-69
2022/05/16 07:53:47;;;;;;;;;;;17.80;99.90;;;;;;5006076;28;19909;-69
2022/05/16 07:56:13;;;;;;;;;;;17.80;99.90;;;;;;5000311;28;19955;-70
2022/05/16 07:58:38;;;;;;;;;;;17.70;99.90;;;;;;5009429;28;20278;-69
2022/05/16 08:01:04;;;;;;;;;;;17.90;99.90;;;;;;5005834;28;19984;-69
2022/05/16 08:03:30;;;;;;;;;;;18.00;99.90;;;;;;5002173;28;19948;-70
2022/05/16 08:05:57;;;;;;;;;;;17.90;99.90;;;;;;5006117;28;19956;-70
2022/05/16 08:11:09;;;;;;;;;;;18.00;99.90;;;;;;5009519;28;19971;-70
2022/05/16 08:13:36;;;;;;;;;;;18.00;99.90;;;;;;5009008;28;19909;-70
2022/05/16 08:16:02;;;;;;;;;;;18.10;99.90;;;;;;4992974;28;19914;-71
2022/05/16 08:18:27;;;;;;;;;;;18.40;99.90;;;;;;5008377;28;19934;-71
2022/05/16 08:20:53;;;;;;;;;;;18.50;99.90;;;;;;5009127;28;19913;-69
2022/05/16 08:23:25;;;;;;;;;;;18.80;99.90;;;;;;5007901;28;20329;-71
2022/05/16 08:25:52;;;;;;;;;;;18.80;99.90;;;;;;5008867;28;19967;-70
2022/05/16 08:28:17;;;;;;;;;;;18.90;99.90;;;;;;5011261;28;19936;-71
2022/05/16 08:30:46;;;;;;;;;;;18.80;99.90;;;;;;4997398;28;19918;-71
2022/05/16 08:33:12;;;;;;;;;;;18.80;99.90;;;;;;5011416;28;20371;-73
2022/05/16 08:35:38;;;;;;;;;;;18.80;99.90;;;;;;4988108;28;19963;-70
2022/05/16 08:40:47;;;;;;;;;;;18.90;99.90;;;;;;5008727;28;19940;-70
2022/05/16 08:43:16;;;;;;;;;;;18.90;99.90;;;;;;5009657;28;20347;-71
2022/05/16 08:45:46;;;;;;;;;;;19.10;99.90;;;;;;5010310;28;19925;-70
2022/05/16 08:48:17;;;;;;;;;;;19.30;99.90;;;;;;5001383;28;20390;-72
2022/05/16 08:50:48;;;;;;;;;;;19.60;99.90;;;;;;4990426;28;19960;-71
2022/05/16 08:53:23;;;;;;;;;;;19.60;99.90;;;;;;5006414;28;19933;-70
2022/05/16 08:55:51;;;;;;;;;;;19.60;99.90;;;;;;5012257;28;20059;-70
2022/05/16 08:58:20;;;;;;;;;;;19.60;99.90;;;;;;4987674;28;20035;-72
2022/05/16 09:00:51;;;;;;;;;;;19.30;99.90;;;;;;5002672;28;19933;-71
2022/05/16 09:03:35;;;;;;;;;;;19.10;99.90;;;;;;4999742;28;19957;-72
2022/05/16 09:06:05;;;;;;;;;;;19.10;99.90;;;;;;4989829;28;19909;-70
2022/05/16 09:08:35;;;;;;;;;;;19.10;99.90;;;;;;5009594;28;19909;-71
2022/05/16 09:11:06;;;;;;;;;;;19.20;99.90;;;;;;5002286;28;19964;-71
2022/05/16 09:13:51;;;;;;;;;;;19.50;99.90;;;;;;5009529;28;19917;-71
2022/05/16 09:16:39;;;;;;;;;;;19.50;99.90;;;;;;5010837;28;19909;-70
2022/05/16 09:19:05;;;;;;;;;;;19.70;99.90;;;;;;5002734;28;20004;-71
2022/05/16 09:21:44;;;;;;;;;;;19.60;99.90;;;;;;5002823;28;20079;-70
2022/05/16 09:24:15;;;;;;;;;;;19.80;99.90;;;;;;5012077;28;20302;-70
2022/05/16 09:27:04;;;;;;;;;;;20.00;99.90;;;;;;5016439;28;19992;-70
2022/05/16 09:29:31;;;;;;;;;;;20.00;99.90;;;;;;4970544;28;20427;-70
2022/05/16 09:32:23;;;;;;;;;;;19.70;99.90;;;;;;5012158;28;19917;-71
2022/05/16 09:34:49;;;;;;;;;;;19.60;99.90;;;;;;5007251;28;19979;-70
2022/05/16 09:37:14;;;;;;;;;;;19.60;99.90;;;;;;5012120;28;19947;-71
2022/05/16 09:39:40;;;;;;;;;;;19.70;99.90;;;;;;5011258;28;19909;-70
2022/05/16 09:42:11;;;;;;;;;;;19.70;99.90;;;;;;5010579;28;19996;-71
2022/05/16 09:44:42;;;;;;;;;;;19.80;99.90;;;;;;5017312;28;20351;-71
2022/05/16 09:47:19;;;;;;;;;;;19.80;99.90;;;;;;4994383;28;19913;-72
2022/05/16 09:50:03;;;;;;;;;;;19.80;99.90;;;;;;4992644;28;19963;-70
2022/05/16 09:52:32;;;;;;;;;;;20.00;99.90;;;;;;5003163;28;19921;-71
2022/05/16 09:54:59;;;;;;;;;;;20.20;99.90;;;;;;5011708;28;20368;-71
2022/05/16 09:57:25;;;;;;;;;;;20.10;99.90;;;;;;5014112;28;20348;-71
2022/05/16 09:59:52;;;;;;;;;;;20.10;99.90;;;;;;5008978;28;19956;-70
2022/05/16 10:02:23;;;;;;;;;;;20.10;99.90;;;;;;5006269;28;20322;-70
2022/05/16 10:04:52;;;;;;;;;;;20.30;99.90;;;;;;5013603;28;19916;-72
2022/05/16 10:07:21;;;;;;;;;;;20.40;99.90;;;;;;5006251;28;19909;-69
2022/05/16 10:09:48;;;;;;;;;;;20.40;99.90;;;;;;5024301;28;19909;-71
2022/05/16 10:12:16;;;;;;;;;;;20.20;99.90;;;;;;5006318;28;19961;-70
2022/05/16 10:14:42;;;;;;;;;;;20.00;99.90;;;;;;5011443;28;19913;-70
2022/05/16 10:17:09;;;;;;;;;;;20.10;99.90;;;;;;5014346;28;19909;-70
2022/05/16 10:19:38;;;;;;;;;;;20.20;99.90;;;;;;4982836;28;20332;-70
2022/05/16 10:22:07;;;;;;;;;;;20.20;99.90;;;;;;4989313;28;19910;-70
2022/05/16 10:24:42;;;;;;;;;;;20.10;99.90;;;;;;5013591;28;19909;-72
2022/05/16 10:27:09;;;;;;;;;;;20.10;99.90;;;;;;5008495;28;20003;-69
2022/05/16 10:29:37;;;;;;;;;;;20.30;99.90;;;;;;5000956;28;19909;-70
2022/05/16 10:34:56;;;;;;;;;;;20.50;99.90;;;;;;5009320;28;20259;-71
2022/05/16 10:37:23;;;;;;;;;;;20.70;99.90;;;;;;5012223;28;19909;-70
2022/05/16 10:39:56;;;;;;;;;;;21.00;99.90;;;;;;4994955;28;20000;-71
2022/05/16 10:42:27;;;;;;;;;;;21.20;99.90;;;;;;5009878;28;20216;-70
2022/05/16 10:44:56;;;;;;;;;;;21.50;99.90;;;;;;5010168;28;19909;-71
2022/05/16 10:47:31;;;;;;;;;;;21.50;99.90;;;;;;5010603;28;20425;-73
2022/05/16 10:50:03;;;;;;;;;;;21.40;99.90;;;;;;5007462;28;20371;-72
2022/05/16 10:52:47;;;;;;;;;;;21.30;99.90;;;;;;5011895;28;20343;-70
2022/05/16 10:55:12;;;;;;;;;;;21.20;99.90;;;;;;4987989;28;19945;-71
2022/05/16 10:57:38;;;;;;;;;;;20.60;99.90;;;;;;4991483;28;20426;-71
2022/05/16 11:00:10;;;;;;;;;;;20.50;99.90;;;;;;5004805;28;19914;-70
2022/05/16 11:02:50;;;;;;;;;;;20.60;99.90;;;;;;5010112;28;19917;-72
2022/05/16 11:05:45;;;;;;;;;;;20.70;99.90;;;;;;4992154;28;19910;-70
2022/05/16 11:08:32;;;;;;;;;;;20.80;99.90;;;;;;4997359;28;19909;-70
2022/05/16 11:10:58;;;;;;;;;;;21.00;99.90;;;;;;4991739;28;19918;-71
2022/05/16 11:13:28;;;;;;;;;;;20.90;99.90;;;;;;5002784;28;19915;-69
2022/05/16 11:16:04;;;;;;;;;;;20.60;99.90;;;;;;5008090;28;19956;-71
2022/05/16 11:18:43;;;;;;;;;;;20.70;99.90;;;;;;5007828;28;19917;-70
2022/05/16 11:21:27;;;;;;;;;;;20.80;99.90;;;;;;5009409;28;19957;-70
2022/05/16 11:23:59;;;;;;;;;;;20.80;99.90;;;;;;5003646;28;19909;-70
2022/05/16 11:26:50;;;;;;;;;;;21.10;99.90;;;;;;5007110;28;19918;-71
2022/05/16 11:29:19;;;;;;;;;;;21.00;99.90;;;;;;4979204;28;19931;-77
2022/05/16 11:31:51;;;;;;;;;;;20.80;99.90;;;;;;5005838;28;19917;-71
2022/05/16 11:34:22;;;;;;;;;;;20.70;99.90;;;;;;5005438;28;20260;-70
2022/05/16 11:36:59;;;;;;;;;;;20.60;99.90;;;;;;4999777;28;19910;-70
2022/05/16 11:39:41;;;;;;;;;;;20.50;99.90;;;;;;5007561;28;19935;-71
2022/05/16 11:42:17;;;;;;;;;;;20.70;99.90;;;;;;5012477;28;19908;-70
2022/05/16 11:44:55;;;;;;;;;;;21.00;99.90;;;;;;5011440;28;19910;-71
2022/05/16 11:47:29;;;;;;;;;;;20.90;99.90;;;;;;5008286;28;19934;-71
2022/05/16 11:49:55;;;;;;;;;;;20.70;99.90;;;;;;4976813;28;19913;-70
2022/05/16 11:52:29;;;;;;;;;;;20.50;99.90;;;;;;5009227;28;19918;-69
2022/05/16 12:00:52;;;;;;;;;;;21.00;99.90;;;;;;5013155;28;19955;-71
2022/05/16 12:03:19;;;;;;;;;;;20.40;99.90;;;;;;4989765;28;19956;-71
2022/05/16 12:05:50;;;;;;;;;;;20.20;99.90;;;;;;5004026;28;19949;-70
2022/05/16 12:08:34;;;;;;;;;;;20.10;99.90;;;;;;5006990;28;20012;-70
2022/05/16 12:11:03;;;;;;;;;;;20.00;99.90;;;;;;4991347;28;19909;-70
2022/05/16 12:13:28;;;;;;;;;;;20.10;99.90;;;;;;5006707;28;19909;-70
2022/05/16 12:16:12;;;;;;;;;;;20.20;99.90;;;;;;5012439;28;20402;-70
2022/05/16 12:18:39;;;;;;;;;;;20.10;99.90;;;;;;5002342;28;20008;-71
2022/05/16 12:21:12;;;;;;;;;;;19.80;99.90;;;;;;5003195;28;20262;-70
2022/05/16 12:23:49;;;;;;;;;;;19.60;99.90;;;;;;5010547;28;19909;-70
2022/05/16 12:26:27;;;;;;;;;;;19.70;99.90;;;;;;4997708;28;19992;-69
2022/05/16 12:29:22;;;;;;;;;;;19.60;99.90;;;;;;5000642;28;20240;-71
2022/05/16 12:31:50;;;;;;;;;;;19.70;99.90;;;;;;4998396;28;19917;-70
2022/05/16 12:34:38;;;;;;;;;;;19.70;99.90;;;;;;4982236;28;20335;-70
2022/05/16 12:37:09;;;;;;;;;;;19.80;99.90;;;;;;4999493;28;20000;-71
2022/05/16 12:39:38;;;;;;;;;;;20.10;99.90;;;;;;5007163;28;20271;-69
2022/05/16 12:42:10;;;;;;;;;;;20.40;99.90;;;;;;5006195;28;20108;-71
2022/05/16 12:44:42;;;;;;;;;;;20.50;99.90;;;;;;5008685;28;19968;-69
2022/05/16 12:47:26;;;;;;;;;;;20.30;99.90;;;;;;5004048;28;19909;-71
2022/05/16 12:50:10;;;;;;;;;;;20.40;99.90;;;;;;5013727;28;19927;-72
2022/05/16 12:52:54;;;;;;;;;;;20.50;99.90;;;;;;5012163;28;19913;-69
2022/05/16 12:55:20;;;;;;;;;;;20.20;99.90;;;;;;4992603;28;19910;-71
2022/05/16 12:58:05;;;;;;;;;;;20.20;99.90;;;;;;5002645;28;20315;-70
2022/05/16 13:00:34;;;;;;;;;;;20.20;99.90;;;;;;5022827;28;19906;-70
2022/05/16 13:03:09;;;;;;;;;;;20.00;99.90;;;;;;4989896;28;19921;-71
2022/05/16 13:05:42;;;;;;;;;;;20.00;99.90;;;;;;5011711;28;19909;-71
2022/05/16 13:08:14;;;;;;;;;;;20.00;99.90;;;;;;5006669;28;20422;-71
2022/05/16 13:10:46;;;;;;;;;;;20.10;99.90;;;;;;5011403;28;19992;-70
2022/05/16 13:13:35;;;;;;;;;;;20.30;99.90;;;;;;5010503;28;19913;-69
2022/05/16 13:16:03;;;;;;;;;;;20.40;99.90;;;;;;5012022;28;19910;-70
2022/05/16 13:18:31;;;;;;;;;;;20.30;99.90;;;;;;5009792;28;19960;-70
2022/05/16 13:21:00;;;;;;;;;;;20.00;99.90;;;;;;5012000;28;20350;-69
2022/05/16 13:23:25;;;;;;;;;;;19.90;99.90;;;;;;4983760;28;19917;-69
2022/05/16 13:31:33;;;;;;;;;;;19.90;99.90;;;;;;5013676;28;19963;-70
2022/05/16 13:34:00;;;;;;;;;;;20.20;99.90;;;;;;5008882;28;20004;-71
2022/05/16 13:36:26;;;;;;;;;;;20.20;99.90;;;;;;5012476;28;19914;-70
2022/05/16 13:38:54;;;;;;;;;;;20.20;99.90;;;;;;5009389;28;20272;-70
2022/05/16 13:41:21;;;;;;;;;;;20.20;99.90;;;;;;5008409;28;19909;-70
2022/05/16 13:43:48;;;;;;;;;;;19.80;99.90;;;;;;5007325;28;19916;-71
2022/05/16 13:46:13;;;;;;;;;;;19.60;99.90;;;;;;5009561;28;19909;-70
2022/05/16 13:48:40;;;;;;;;;;;19.00;99.90;;;;;;4994251;28;19921;-71
2022/05/16 13:51:06;;;;;;;;;;;18.60;99.90;;;;;;5007855;28;20110;-71
2022/05/16 13:53:32;;;;;;;;;;;18.50;99.90;;;;;;5006024;28;19964;-72
2022/05/16 13:55:58;;;;;;;;;;;18.60;99.90;;;;;;4997466;28;19960;-70
2022/05/16 13:58:28;;;;;;;;;;;18.90;99.90;;;;;;5020061;28;20248;-69
2022/05/16 14:01:12;;;;;;;;;;;19.20;99.90;;;;;;5007140;28;20117;-70
2022/05/16 14:03:46;;;;;;;;;;;19.50;99.90;;;;;;4992801;28;20013;-70
2022/05/16 14:06:11;;;;;;;;;;;19.50;99.90;;;;;;5012261;28;20013;-70
2022/05/16 14:08:40;;;;;;;;;;;19.50;99.90;;;;;;5015152;28;20302;-71
2022/05/16 14:11:17;;;;;;;;;;;19.10;99.90;;;;;;5014737;28;19929;-71
2022/05/16 14:13:44;;;;;;;;;;;19.00;99.90;;;;;;5014780;28;19913;-70
2022/05/16 14:16:12;;;;;;;;;;;19.00;99.90;;;;;;5016919;28;19932;-71
2022/05/16 14:18:38;;;;;;;;;;;19.10;99.90;;;;;;5000435;28;20220;-71
2022/05/16 14:21:15;;;;;;;;;;;18.70;99.90;;;;;;5012868;28;19920;-70
2022/05/16 14:23:43;;;;;;;;;;;18.60;99.90;;;;;;4992864;28;19917;-70
2022/05/16 14:26:12;;;;;;;;;;;18.60;99.90;;;;;;5011211;28;19909;-71
2022/05/16 14:28:44;;;;;;;;;;;18.80;99.90;;;;;;5005381;28;19944;-71
2022/05/16 14:31:19;;;;;;;;;;;19.00;99.90;;;;;;5017471;28;19960;-71
2022/05/16 14:33:55;;;;;;;;;;;19.00;99.90;;;;;;5022581;28;19914;-70
2022/05/16 14:36:25;;;;;;;;;;;18.70;99.90;;;;;;5031287;28;20062;-71
2022/05/16 14:38:51;;;;;;;;;;;18.70;99.90;;;;;;4996711;28;19914;-70
2022/05/16 14:41:22;;;;;;;;;;;18.50;99.90;;;;;;5009351;28;20027;-69
2022/05/16 14:44:02;;;;;;;;;;;18.50;99.90;;;;;;5017732;28;20018;-69
2022/05/16 14:46:43;;;;;;;;;;;18.70;99.90;;;;;;5012893;28;20266;-70
2022/05/16 14:49:13;;;;;;;;;;;18.80;99.90;;;;;;4998325;28;19944;-69
2022/05/16 14:51:39;;;;;;;;;;;18.70;99.90;;;;;;5022669;28;19913;-71
2022/05/16 14:54:24;;;;;;;;;;;18.60;99.90;;;;;;5021135;28;19913;-70
2022/05/16 14:56:50;;;;;;;;;;;18.80;99.90;;;;;;5019362;28;19916;-70
2022/05/16 14:59:15;;;;;;;;;;;19.00;99.90;;;;;;4996095;28;21102;-70
2022/05/16 15:04:25;;;;;;;;;;;20.60;99.90;;;;;;5013797;28;19960;-69